sensor_id;sensor_type;location;lat;lon;timestamp;P1;durP1;ratioP1;P2;durP2;ratioP2
75189;SDS011;69198;44.694;37.790;2024-01-15T00:00:19;5.15;;;0.63;;
75189;SDS011;69198;44.694;37.790;2024-01-15T00:01:21;4.33;;;0.70;;
75189;SDS011;69198;44.694;37.790;2024-01-15T00:02:22;4.70;;;0.60;;
75189;SDS011;69198;44.694;37.790;2024-01-15T00:03:23;3.35;;;0.68;;
75189;SDS011;69198;44.694;37.790;2024-01-15T00:04:24;6.55;;;0.65;;
75189;SDS011;69198;44.694;37.790;2024-01-15T00:05:25;4.20;;;0.80;;
75189;SDS011;69198;44.694;37.790;2024-01-15T00:06:26;4.03;;;0.77;;
75189;SDS011;69198;44.694;37.790;2024-01-15T00:07:47;5.22;;;0.98;;
75189;SDS011;69198;44.694;37.790;2024-01-15T00:08:48;5.23;;;1.17;;
75189;SDS011;69198;44.694;37.790;2024-01-15T00:10:07;4.28;;;0.57;;
75189;SDS011;69198;44.694;37.790;2024-01-15T00:11:08;6.78;;;0.80;;
75189;SDS011;69198;44.694;37.790;2024-01-15T00:12:09;5.28;;;0.82;;
75189;SDS011;69198;44.694;37.790;2024-01-15T00:13:10;3.58;;;0.60;;
75189;SDS011;69198;44.694;37.790;2024-01-15T00:14:11;5.57;;;1.00;;
75189;SDS011;69198;44.694;37.790;2024-01-15T00:15:14;5.50;;;0.80;;
75189;SDS011;69198;44.694;37.790;2024-01-15T00:16:15;4.68;;;0.60;;
75189;SDS011;69198;44.694;37.790;2024-01-15T00:17:17;3.72;;;0.70;;
75189;SDS011;69198;44.694;37.790;2024-01-15T00:18:36;4.03;;;0.70;;
75189;SDS011;69198;44.694;37.790;2024-01-15T00:19:38;4.22;;;0.82;;
75189;SDS011;69198;44.694;37.790;2024-01-15T00:20:39;3.83;;;0.55;;
75189;SDS011;69198;44.694;37.790;2024-01-15T00:21:40;4.55;;;0.60;;
75189;SDS011;69198;44.694;37.790;2024-01-15T00:22:41;4.30;;;0.50;;
75189;SDS011;69198;44.694;37.790;2024-01-15T00:23:42;4.05;;;0.85;;
75189;SDS011;69198;44.694;37.790;2024-01-15T00:24:46;3.40;;;0.60;;
75189;SDS011;69198;44.694;37.790;2024-01-15T00:26:06;3.63;;;0.65;;
75189;SDS011;69198;44.694;37.790;2024-01-15T00:27:07;5.32;;;0.80;;
75189;SDS011;69198;44.694;37.790;2024-01-15T00:28:26;3.57;;;0.47;;
75189;SDS011;69198;44.694;37.790;2024-01-15T00:29:27;6.20;;;1.02;;
75189;SDS011;69198;44.694;37.790;2024-01-15T00:30:28;3.83;;;0.60;;
75189;SDS011;69198;44.694;37.790;2024-01-15T00:31:29;6.55;;;0.80;;
75189;SDS011;69198;44.694;37.790;2024-01-15T00:32:30;4.03;;;0.80;;
75189;SDS011;69198;44.694;37.790;2024-01-15T00:33:31;4.90;;;0.80;;
75189;SDS011;69198;44.694;37.790;2024-01-15T00:34:32;5.32;;;0.90;;
75189;SDS011;69198;44.694;37.790;2024-01-15T00:35:34;7.15;;;1.10;;
75189;SDS011;69198;44.694;37.790;2024-01-15T00:36:35;5.60;;;0.93;;
75189;SDS011;69198;44.694;37.790;2024-01-15T00:37:36;3.07;;;0.60;;
75189;SDS011;69198;44.694;37.790;2024-01-15T00:38:37;4.72;;;0.77;;
75189;SDS011;69198;44.694;37.790;2024-01-15T00:39:38;4.40;;;0.70;;
75189;SDS011;69198;44.694;37.790;2024-01-15T00:40:39;2.83;;;0.30;;
75189;SDS011;69198;44.694;37.790;2024-01-15T00:41:40;5.93;;;0.70;;
75189;SDS011;69198;44.694;37.790;2024-01-15T00:42:41;3.97;;;0.80;;
75189;SDS011;69198;44.694;37.790;2024-01-15T00:44:01;3.92;;;0.88;;
75189;SDS011;69198;44.694;37.790;2024-01-15T00:45:03;6.70;;;0.73;;
75189;SDS011;69198;44.694;37.790;2024-01-15T00:46:05;4.53;;;0.87;;
75189;SDS011;69198;44.694;37.790;2024-01-15T00:47:07;4.75;;;0.70;;
75189;SDS011;69198;44.694;37.790;2024-01-15T00:48:08;4.97;;;0.63;;
75189;SDS011;69198;44.694;37.790;2024-01-15T00:49:09;4.85;;;0.45;;
75189;SDS011;69198;44.694;37.790;2024-01-15T00:50:10;5.05;;;0.70;;
75189;SDS011;69198;44.694;37.790;2024-01-15T00:51:11;6.32;;;0.85;;
75189;SDS011;69198;44.694;37.790;2024-01-15T00:53:31;4.53;;;0.88;;
75189;SDS011;69198;44.694;37.790;2024-01-15T00:54:32;5.57;;;0.85;;
75189;SDS011;69198;44.694;37.790;2024-01-15T00:55:33;6.10;;;1.10;;
75189;SDS011;69198;44.694;37.790;2024-01-15T00:56:34;3.65;;;0.47;;
75189;SDS011;69198;44.694;37.790;2024-01-15T00:57:35;5.82;;;0.90;;
75189;SDS011;69198;44.694;37.790;2024-01-15T00:58:55;3.92;;;0.50;;
75189;SDS011;69198;44.694;37.790;2024-01-15T00:59:56;3.75;;;0.45;;
75189;SDS011;69198;44.694;37.790;2024-01-15T01:00:57;5.13;;;0.90;;
75189;SDS011;69198;44.694;37.790;2024-01-15T01:01:58;6.65;;;0.90;;
75189;SDS011;69198;44.694;37.790;2024-01-15T01:02:59;6.47;;;1.17;;
75189;SDS011;69198;44.694;37.790;2024-01-15T01:04:00;5.60;;;0.80;;
75189;SDS011;69198;44.694;37.790;2024-01-15T01:05:01;6.35;;;0.80;;
75189;SDS011;69198;44.694;37.790;2024-01-15T01:06:02;5.30;;;0.90;;
75189;SDS011;69198;44.694;37.790;2024-01-15T01:07:03;6.03;;;0.88;;
75189;SDS011;69198;44.694;37.790;2024-01-15T01:08:04;6.57;;;1.15;;
75189;SDS011;69198;44.694;37.790;2024-01-15T01:09:05;4.65;;;0.85;;
75189;SDS011;69198;44.694;37.790;2024-01-15T01:10:07;6.43;;;1.20;;
75189;SDS011;69198;44.694;37.790;2024-01-15T01:11:12;6.53;;;0.93;;
75189;SDS011;69198;44.694;37.790;2024-01-15T01:12:13;5.27;;;0.80;;
75189;SDS011;69198;44.694;37.790;2024-01-15T01:13:14;6.30;;;1.00;;
75189;SDS011;69198;44.694;37.790;2024-01-15T01:14:15;5.20;;;0.75;;
75189;SDS011;69198;44.694;37.790;2024-01-15T01:15:16;6.68;;;0.60;;
75189;SDS011;69198;44.694;37.790;2024-01-15T01:16:17;4.72;;;0.55;;
75189;SDS011;69198;44.694;37.790;2024-01-15T01:17:18;5.68;;;0.82;;
75189;SDS011;69198;44.694;37.790;2024-01-15T01:18:19;3.72;;;0.70;;
75189;SDS011;69198;44.694;37.790;2024-01-15T01:19:39;3.57;;;0.63;;
75189;SDS011;69198;44.694;37.790;2024-01-15T01:20:40;5.85;;;0.68;;
75189;SDS011;69198;44.694;37.790;2024-01-15T01:21:41;4.50;;;0.60;;
75189;SDS011;69198;44.694;37.790;2024-01-15T01:22:42;6.57;;;0.75;;
75189;SDS011;69198;44.694;37.790;2024-01-15T01:23:43;4.32;;;0.50;;
75189;SDS011;69198;44.694;37.790;2024-01-15T01:25:02;6.20;;;0.63;;
75189;SDS011;69198;44.694;37.790;2024-01-15T01:26:04;4.45;;;0.40;;
75189;SDS011;69198;44.694;37.790;2024-01-15T01:27:05;4.28;;;0.55;;
75189;SDS011;69198;44.694;37.790;2024-01-15T01:28:06;5.70;;;0.70;;
75189;SDS011;69198;44.694;37.790;2024-01-15T01:29:07;5.13;;;0.70;;
75189;SDS011;69198;44.694;37.790;2024-01-15T01:30:08;4.73;;;0.50;;
75189;SDS011;69198;44.694;37.790;2024-01-15T01:31:10;4.13;;;0.70;;
75189;SDS011;69198;44.694;37.790;2024-01-15T01:32:11;5.05;;;0.98;;
75189;SDS011;69198;44.694;37.790;2024-01-15T01:33:12;4.00;;;0.60;;
75189;SDS011;69198;44.694;37.790;2024-01-15T01:34:32;5.18;;;0.50;;
75189;SDS011;69198;44.694;37.790;2024-01-15T01:35:33;4.70;;;0.68;;
75189;SDS011;69198;44.694;37.790;2024-01-15T01:36:34;3.35;;;0.40;;
75189;SDS011;69198;44.694;37.790;2024-01-15T01:37:35;3.80;;;0.50;;
75189;SDS011;69198;44.694;37.790;2024-01-15T01:38:37;6.57;;;0.50;;
75189;SDS011;69198;44.694;37.790;2024-01-15T01:39:56;5.38;;;0.50;;
75189;SDS011;69198;44.694;37.790;2024-01-15T01:40:57;4.68;;;0.63;;
75189;SDS011;69198;44.694;37.790;2024-01-15T01:41:58;5.18;;;0.60;;
75189;SDS011;69198;44.694;37.790;2024-01-15T01:42:59;4.10;;;0.70;;
75189;SDS011;69198;44.694;37.790;2024-01-15T01:45:20;3.75;;;0.60;;
75189;SDS011;69198;44.694;37.790;2024-01-15T01:46:21;5.45;;;0.60;;
75189;SDS011;69198;44.694;37.790;2024-01-15T01:47:22;4.60;;;0.68;;
75189;SDS011;69198;44.694;37.790;2024-01-15T01:48:26;3.42;;;0.38;;
75189;SDS011;69198;44.694;37.790;2024-01-15T01:49:28;3.70;;;0.53;;
75189;SDS011;69198;44.694;37.790;2024-01-15T01:50:29;5.28;;;0.60;;
75189;SDS011;69198;44.694;37.790;2024-01-15T01:51:33;4.90;;;0.50;;
75189;SDS011;69198;44.694;37.790;2024-01-15T01:52:53;4.22;;;0.70;;
75189;SDS011;69198;44.694;37.790;2024-01-15T01:53:53;5.43;;;0.80;;
75189;SDS011;69198;44.694;37.790;2024-01-15T01:54:55;4.53;;;0.90;;
75189;SDS011;69198;44.694;37.790;2024-01-15T01:55:57;4.80;;;0.70;;
75189;SDS011;69198;44.694;37.790;2024-01-15T01:56:58;8.20;;;0.75;;
75189;SDS011;69198;44.694;37.790;2024-01-15T01:58:20;4.38;;;0.80;;
75189;SDS011;69198;44.694;37.790;2024-01-15T01:59:22;5.40;;;0.70;;
75189;SDS011;69198;44.694;37.790;2024-01-15T02:00:24;4.13;;;0.60;;
75189;SDS011;69198;44.694;37.790;2024-01-15T02:01:25;4.70;;;0.45;;
75189;SDS011;69198;44.694;37.790;2024-01-15T02:03:46;4.28;;;0.80;;
75189;SDS011;69198;44.694;37.790;2024-01-15T02:04:47;6.25;;;0.85;;
75189;SDS011;69198;44.694;37.790;2024-01-15T02:05:49;6.70;;;0.90;;
75189;SDS011;69198;44.694;37.790;2024-01-15T02:06:51;4.32;;;0.77;;
75189;SDS011;69198;44.694;37.790;2024-01-15T02:07:52;4.05;;;0.55;;
75189;SDS011;69198;44.694;37.790;2024-01-15T02:08:53;3.95;;;0.77;;
75189;SDS011;69198;44.694;37.790;2024-01-15T02:11:15;5.93;;;0.87;;
75189;SDS011;69198;44.694;37.790;2024-01-15T02:12:16;4.40;;;0.43;;
75189;SDS011;69198;44.694;37.790;2024-01-15T02:13:17;4.65;;;0.70;;
75189;SDS011;69198;44.694;37.790;2024-01-15T02:14:19;5.18;;;0.70;;
75189;SDS011;69198;44.694;37.790;2024-01-15T02:15:20;5.13;;;0.68;;
75189;SDS011;69198;44.694;37.790;2024-01-15T02:16:21;4.72;;;0.73;;
75189;SDS011;69198;44.694;37.790;2024-01-15T02:17:22;4.68;;;0.57;;
75189;SDS011;69198;44.694;37.790;2024-01-15T02:18:42;5.72;;;0.55;;
75189;SDS011;69198;44.694;37.790;2024-01-15T02:21:03;4.63;;;0.68;;
75189;SDS011;69198;44.694;37.790;2024-01-15T02:22:04;6.37;;;0.97;;
75189;SDS011;69198;44.694;37.790;2024-01-15T02:24:11;4.75;;;0.80;;
75189;SDS011;69198;44.694;37.790;2024-01-15T02:25:12;4.25;;;0.80;;
75189;SDS011;69198;44.694;37.790;2024-01-15T02:26:13;5.45;;;0.57;;
75189;SDS011;69198;44.694;37.790;2024-01-15T02:27:15;5.55;;;0.73;;
75189;SDS011;69198;44.694;37.790;2024-01-15T02:28:16;3.47;;;0.50;;
75189;SDS011;69198;44.694;37.790;2024-01-15T02:29:18;6.03;;;0.73;;
75189;SDS011;69198;44.694;37.790;2024-01-15T02:30:19;4.55;;;0.75;;
75189;SDS011;69198;44.694;37.790;2024-01-15T02:31:20;5.93;;;0.93;;
75189;SDS011;69198;44.694;37.790;2024-01-15T02:32:21;6.75;;;1.05;;
75189;SDS011;69198;44.694;37.790;2024-01-15T02:33:22;4.53;;;0.60;;
75189;SDS011;69198;44.694;37.790;2024-01-15T02:34:23;5.60;;;0.70;;
75189;SDS011;69198;44.694;37.790;2024-01-15T02:35:42;4.80;;;0.90;;
75189;SDS011;69198;44.694;37.790;2024-01-15T02:36:43;5.82;;;0.70;;
75189;SDS011;69198;44.694;37.790;2024-01-15T02:38:03;4.38;;;0.80;;
75189;SDS011;69198;44.694;37.790;2024-01-15T02:39:04;4.00;;;0.70;;
75189;SDS011;69198;44.694;37.790;2024-01-15T02:40:06;6.13;;;0.70;;
75189;SDS011;69198;44.694;37.790;2024-01-15T02:41:07;5.20;;;0.77;;
75189;SDS011;69198;44.694;37.790;2024-01-15T02:42:08;6.40;;;0.90;;
75189;SDS011;69198;44.694;37.790;2024-01-15T02:43:28;4.85;;;0.90;;
75189;SDS011;69198;44.694;37.790;2024-01-15T02:44:29;4.30;;;0.63;;
75189;SDS011;69198;44.694;37.790;2024-01-15T02:45:30;4.05;;;0.70;;
75189;SDS011;69198;44.694;37.790;2024-01-15T02:46:31;6.15;;;0.93;;
75189;SDS011;69198;44.694;37.790;2024-01-15T02:47:32;4.63;;;0.70;;
75189;SDS011;69198;44.694;37.790;2024-01-15T02:48:33;4.83;;;1.10;;
75189;SDS011;69198;44.694;37.790;2024-01-15T02:49:35;5.93;;;0.95;;
75189;SDS011;69198;44.694;37.790;2024-01-15T02:50:36;4.93;;;0.90;;
75189;SDS011;69198;44.694;37.790;2024-01-15T02:51:55;6.53;;;0.80;;
75189;SDS011;69198;44.694;37.790;2024-01-15T02:52:56;8.05;;;1.17;;
75189;SDS011;69198;44.694;37.790;2024-01-15T02:53:57;6.38;;;0.98;;
75189;SDS011;69198;44.694;37.790;2024-01-15T02:55:17;5.95;;;0.90;;
75189;SDS011;69198;44.694;37.790;2024-01-15T02:56:18;6.30;;;0.98;;
75189;SDS011;69198;44.694;37.790;2024-01-15T02:57:19;5.67;;;1.17;;
75189;SDS011;69198;44.694;37.790;2024-01-15T02:58:20;4.78;;;1.13;;
75189;SDS011;69198;44.694;37.790;2024-01-15T02:59:22;5.47;;;1.00;;
75189;SDS011;69198;44.694;37.790;2024-01-15T03:00:23;5.43;;;0.80;;
75189;SDS011;69198;44.694;37.790;2024-01-15T03:01:24;5.60;;;1.20;;
75189;SDS011;69198;44.694;37.790;2024-01-15T03:02:25;5.32;;;0.88;;
75189;SDS011;69198;44.694;37.790;2024-01-15T03:03:26;7.25;;;1.13;;
75189;SDS011;69198;44.694;37.790;2024-01-15T03:04:27;5.95;;;1.00;;
75189;SDS011;69198;44.694;37.790;2024-01-15T03:05:28;5.57;;;1.00;;
75189;SDS011;69198;44.694;37.790;2024-01-15T03:06:29;5.63;;;0.88;;
75189;SDS011;69198;44.694;37.790;2024-01-15T03:07:30;4.15;;;0.70;;
75189;SDS011;69198;44.694;37.790;2024-01-15T03:08:31;5.18;;;0.60;;
75189;SDS011;69198;44.694;37.790;2024-01-15T03:09:50;4.78;;;0.73;;
75189;SDS011;69198;44.694;37.790;2024-01-15T03:10:51;4.60;;;0.80;;
75189;SDS011;69198;44.694;37.790;2024-01-15T03:11:52;7.30;;;0.90;;
75189;SDS011;69198;44.694;37.790;2024-01-15T03:12:54;6.90;;;1.00;;
75189;SDS011;69198;44.694;37.790;2024-01-15T03:14:13;5.68;;;0.88;;
75189;SDS011;69198;44.694;37.790;2024-01-15T03:15:14;5.13;;;0.88;;
75189;SDS011;69198;44.694;37.790;2024-01-15T03:16:15;6.90;;;0.80;;
75189;SDS011;69198;44.694;37.790;2024-01-15T03:17:16;5.78;;;1.00;;
75189;SDS011;69198;44.694;37.790;2024-01-15T03:18:36;6.43;;;0.90;;
75189;SDS011;69198;44.694;37.790;2024-01-15T03:19:37;9.80;;;1.25;;
75189;SDS011;69198;44.694;37.790;2024-01-15T03:20:38;5.75;;;1.10;;
75189;SDS011;69198;44.694;37.790;2024-01-15T03:21:39;5.32;;;1.17;;
75189;SDS011;69198;44.694;37.790;2024-01-15T03:22:40;5.77;;;1.20;;
75189;SDS011;69198;44.694;37.790;2024-01-15T03:23:41;5.72;;;1.10;;
75189;SDS011;69198;44.694;37.790;2024-01-15T03:24:43;6.45;;;1.33;;
75189;SDS011;69198;44.694;37.790;2024-01-15T03:25:44;5.65;;;1.10;;
75189;SDS011;69198;44.694;37.790;2024-01-15T03:26:45;9.15;;;1.30;;
75189;SDS011;69198;44.694;37.790;2024-01-15T03:27:46;7.07;;;1.33;;
75189;SDS011;69198;44.694;37.790;2024-01-15T03:28:47;6.97;;;1.30;;
75189;SDS011;69198;44.694;37.790;2024-01-15T03:29:48;5.77;;;1.27;;
75189;SDS011;69198;44.694;37.790;2024-01-15T03:30:49;7.65;;;1.73;;
75189;SDS011;69198;44.694;37.790;2024-01-15T03:31:50;7.30;;;1.88;;
75189;SDS011;69198;44.694;37.790;2024-01-15T03:32:51;5.97;;;1.25;;
75189;SDS011;69198;44.694;37.790;2024-01-15T03:33:52;7.90;;;1.83;;
75189;SDS011;69198;44.694;37.790;2024-01-15T03:34:53;12.57;;;1.92;;
75189;SDS011;69198;44.694;37.790;2024-01-15T03:35:54;9.65;;;1.63;;
75189;SDS011;69198;44.694;37.790;2024-01-15T03:36:55;6.85;;;1.83;;
75189;SDS011;69198;44.694;37.790;2024-01-15T03:37:56;6.87;;;1.80;;
75189;SDS011;69198;44.694;37.790;2024-01-15T03:38:57;6.10;;;1.55;;
75189;SDS011;69198;44.694;37.790;2024-01-15T03:39:58;7.13;;;1.70;;
75189;SDS011;69198;44.694;37.790;2024-01-15T03:40:59;10.32;;;1.88;;
75189;SDS011;69198;44.694;37.790;2024-01-15T03:42:00;7.05;;;2.05;;
75189;SDS011;69198;44.694;37.790;2024-01-15T03:43:01;5.90;;;1.40;;
75189;SDS011;69198;44.694;37.790;2024-01-15T03:44:02;9.80;;;1.37;;
75189;SDS011;69198;44.694;37.790;2024-01-15T03:45:03;7.85;;;1.50;;
75189;SDS011;69198;44.694;37.790;2024-01-15T03:46:04;7.88;;;1.75;;
75189;SDS011;69198;44.694;37.790;2024-01-15T03:47:05;5.90;;;1.20;;
75189;SDS011;69198;44.694;37.790;2024-01-15T03:48:06;7.00;;;1.40;;
75189;SDS011;69198;44.694;37.790;2024-01-15T03:49:07;6.15;;;1.30;;
75189;SDS011;69198;44.694;37.790;2024-01-15T03:50:09;7.45;;;1.33;;
75189;SDS011;69198;44.694;37.790;2024-01-15T03:51:10;7.72;;;1.90;;
75189;SDS011;69198;44.694;37.790;2024-01-15T03:52:11;7.05;;;1.52;;
75189;SDS011;69198;44.694;37.790;2024-01-15T03:53:12;8.53;;;1.63;;
75189;SDS011;69198;44.694;37.790;2024-01-15T03:54:13;6.70;;;1.55;;
75189;SDS011;69198;44.694;37.790;2024-01-15T03:55:14;7.97;;;2.22;;
75189;SDS011;69198;44.694;37.790;2024-01-15T03:56:34;7.90;;;1.70;;
75189;SDS011;69198;44.694;37.790;2024-01-15T03:57:35;6.20;;;1.55;;
75189;SDS011;69198;44.694;37.790;2024-01-15T03:58:37;5.95;;;1.63;;
75189;SDS011;69198;44.694;37.790;2024-01-15T03:59:40;6.57;;;1.40;;
75189;SDS011;69198;44.694;37.790;2024-01-15T04:00:42;6.25;;;1.45;;
75189;SDS011;69198;44.694;37.790;2024-01-15T04:01:48;7.45;;;2.05;;
75189;SDS011;69198;44.694;37.790;2024-01-15T04:02:50;8.18;;;1.40;;
75189;SDS011;69198;44.694;37.790;2024-01-15T04:04:10;7.90;;;1.80;;
75189;SDS011;69198;44.694;37.790;2024-01-15T04:05:10;8.85;;;1.90;;
75189;SDS011;69198;44.694;37.790;2024-01-15T04:06:12;7.38;;;1.55;;
75189;SDS011;69198;44.694;37.790;2024-01-15T04:07:13;8.60;;;1.92;;
75189;SDS011;69198;44.694;37.790;2024-01-15T04:08:14;7.55;;;1.55;;
75189;SDS011;69198;44.694;37.790;2024-01-15T04:09:14;7.95;;;2.10;;
75189;SDS011;69198;44.694;37.790;2024-01-15T04:10:16;8.50;;;2.00;;
75189;SDS011;69198;44.694;37.790;2024-01-15T04:11:17;8.70;;;2.13;;
75189;SDS011;69198;44.694;37.790;2024-01-15T04:12:18;11.00;;;1.73;;
75189;SDS011;69198;44.694;37.790;2024-01-15T04:13:19;8.10;;;2.13;;
75189;SDS011;69198;44.694;37.790;2024-01-15T04:14:20;6.60;;;1.85;;
75189;SDS011;69198;44.694;37.790;2024-01-15T04:15:21;7.28;;;1.63;;
75189;SDS011;69198;44.694;37.790;2024-01-15T04:16:22;7.78;;;1.92;;
75189;SDS011;69198;44.694;37.790;2024-01-15T04:17:22;8.05;;;1.73;;
75189;SDS011;69198;44.694;37.790;2024-01-15T04:18:23;6.87;;;1.77;;
75189;SDS011;69198;44.694;37.790;2024-01-15T04:19:24;6.95;;;2.05;;
75189;SDS011;69198;44.694;37.790;2024-01-15T04:20:25;7.85;;;1.48;;
75189;SDS011;69198;44.694;37.790;2024-01-15T04:21:26;6.18;;;1.48;;
75189;SDS011;69198;44.694;37.790;2024-01-15T04:22:27;7.68;;;1.73;;
75189;SDS011;69198;44.694;37.790;2024-01-15T04:23:28;7.45;;;2.22;;
75189;SDS011;69198;44.694;37.790;2024-01-15T04:24:31;5.93;;;1.57;;
75189;SDS011;69198;44.694;37.790;2024-01-15T04:25:32;8.03;;;2.00;;
75189;SDS011;69198;44.694;37.790;2024-01-15T04:26:33;10.48;;;2.13;;
75189;SDS011;69198;44.694;37.790;2024-01-15T04:27:34;7.18;;;1.98;;
75189;SDS011;69198;44.694;37.790;2024-01-15T04:28:35;7.38;;;1.85;;
75189;SDS011;69198;44.694;37.790;2024-01-15T04:29:39;9.00;;;1.83;;
75189;SDS011;69198;44.694;37.790;2024-01-15T04:30:40;6.07;;;1.45;;
75189;SDS011;69198;44.694;37.790;2024-01-15T04:31:41;8.88;;;1.90;;
75189;SDS011;69198;44.694;37.790;2024-01-15T04:32:42;8.47;;;1.67;;
75189;SDS011;69198;44.694;37.790;2024-01-15T04:33:43;7.10;;;1.67;;
75189;SDS011;69198;44.694;37.790;2024-01-15T04:34:44;8.30;;;1.75;;
75189;SDS011;69198;44.694;37.790;2024-01-15T04:35:45;10.15;;;1.88;;
75189;SDS011;69198;44.694;37.790;2024-01-15T04:36:46;7.50;;;1.30;;
75189;SDS011;69198;44.694;37.790;2024-01-15T04:37:47;7.03;;;1.63;;
75189;SDS011;69198;44.694;37.790;2024-01-15T04:38:48;6.35;;;1.45;;
75189;SDS011;69198;44.694;37.790;2024-01-15T04:39:49;5.13;;;1.40;;
75189;SDS011;69198;44.694;37.790;2024-01-15T04:40:53;6.30;;;1.40;;
75189;SDS011;69198;44.694;37.790;2024-01-15T04:41:54;8.32;;;1.23;;
75189;SDS011;69198;44.694;37.790;2024-01-15T04:42:55;6.88;;;1.40;;
75189;SDS011;69198;44.694;37.790;2024-01-15T04:43:56;6.45;;;1.30;;
75189;SDS011;69198;44.694;37.790;2024-01-15T04:44:57;5.50;;;1.25;;
75189;SDS011;69198;44.694;37.790;2024-01-15T04:45:58;4.53;;;0.90;;
75189;SDS011;69198;44.694;37.790;2024-01-15T04:46:59;7.80;;;1.50;;
75189;SDS011;69198;44.694;37.790;2024-01-15T04:48:00;6.53;;;1.30;;
75189;SDS011;69198;44.694;37.790;2024-01-15T04:49:02;5.97;;;1.20;;
75189;SDS011;69198;44.694;37.790;2024-01-15T04:50:03;8.75;;;1.60;;
75189;SDS011;69198;44.694;37.790;2024-01-15T04:51:05;6.07;;;1.40;;
75189;SDS011;69198;44.694;37.790;2024-01-15T04:52:09;7.57;;;1.25;;
75189;SDS011;69198;44.694;37.790;2024-01-15T04:53:10;8.45;;;1.58;;
75189;SDS011;69198;44.694;37.790;2024-01-15T04:54:11;6.05;;;1.40;;
75189;SDS011;69198;44.694;37.790;2024-01-15T04:55:12;6.77;;;1.43;;
75189;SDS011;69198;44.694;37.790;2024-01-15T04:56:13;7.87;;;2.00;;
75189;SDS011;69198;44.694;37.790;2024-01-15T04:57:14;12.82;;;3.03;;
75189;SDS011;69198;44.694;37.790;2024-01-15T04:58:15;30.88;;;11.15;;
75189;SDS011;69198;44.694;37.790;2024-01-15T04:59:35;14.32;;;4.10;;
75189;SDS011;69198;44.694;37.790;2024-01-15T05:00:54;13.27;;;3.50;;
75189;SDS011;69198;44.694;37.790;2024-01-15T05:01:56;15.57;;;4.63;;
75189;SDS011;69198;44.694;37.790;2024-01-15T05:02:57;13.27;;;4.00;;
75189;SDS011;69198;44.694;37.790;2024-01-15T05:05:18;10.38;;;2.53;;
75189;SDS011;69198;44.694;37.790;2024-01-15T05:06:19;10.90;;;2.67;;
75189;SDS011;69198;44.694;37.790;2024-01-15T05:07:20;8.05;;;2.40;;
75189;SDS011;69198;44.694;37.790;2024-01-15T05:08:21;10.77;;;1.77;;
75189;SDS011;69198;44.694;37.790;2024-01-15T05:09:22;10.87;;;2.77;;
75189;SDS011;69198;44.694;37.790;2024-01-15T05:10:23;12.27;;;4.23;;
75189;SDS011;69198;44.694;37.790;2024-01-15T05:11:24;50.08;;;17.98;;
75189;SDS011;69198;44.694;37.790;2024-01-15T05:12:25;60.35;;;21.23;;
75189;SDS011;69198;44.694;37.790;2024-01-15T05:13:26;14.90;;;5.38;;
75189;SDS011;69198;44.694;37.790;2024-01-15T05:14:26;45.50;;;15.90;;
75189;SDS011;69198;44.694;37.790;2024-01-15T05:15:28;33.85;;;10.48;;
75189;SDS011;69198;44.694;37.790;2024-01-15T05:16:29;15.77;;;5.83;;
75189;SDS011;69198;44.694;37.790;2024-01-15T05:17:48;12.35;;;3.63;;
75189;SDS011;69198;44.694;37.790;2024-01-15T05:18:49;17.23;;;5.53;;
75189;SDS011;69198;44.694;37.790;2024-01-15T05:19:50;12.52;;;3.28;;
75189;SDS011;69198;44.694;37.790;2024-01-15T05:21:10;14.45;;;4.90;;
75189;SDS011;69198;44.694;37.790;2024-01-15T05:22:10;9.63;;;3.08;;
75189;SDS011;69198;44.694;37.790;2024-01-15T05:23:11;11.17;;;3.80;;
75189;SDS011;69198;44.694;37.790;2024-01-15T05:24:12;11.05;;;3.03;;
75189;SDS011;69198;44.694;37.790;2024-01-15T05:26:33;14.95;;;3.25;;
75189;SDS011;69198;44.694;37.790;2024-01-15T05:27:34;12.45;;;3.47;;
75189;SDS011;69198;44.694;37.790;2024-01-15T05:28:35;9.48;;;2.60;;
75189;SDS011;69198;44.694;37.790;2024-01-15T05:29:36;10.18;;;2.75;;
75189;SDS011;69198;44.694;37.790;2024-01-15T05:30:55;9.77;;;2.83;;
75189;SDS011;69198;44.694;37.790;2024-01-15T05:32:14;9.43;;;2.88;;
75189;SDS011;69198;44.694;37.790;2024-01-15T05:33:15;10.27;;;2.20;;
75189;SDS011;69198;44.694;37.790;2024-01-15T05:34:17;9.73;;;2.47;;
75189;SDS011;69198;44.694;37.790;2024-01-15T05:35:17;11.90;;;2.97;;
75189;SDS011;69198;44.694;37.790;2024-01-15T05:36:18;9.25;;;2.63;;
75189;SDS011;69198;44.694;37.790;2024-01-15T05:37:19;12.55;;;3.00;;
75189;SDS011;69198;44.694;37.790;2024-01-15T05:38:20;9.27;;;2.70;;
75189;SDS011;69198;44.694;37.790;2024-01-15T05:39:21;30.20;;;9.30;;
75189;SDS011;69198;44.694;37.790;2024-01-15T05:40:22;13.32;;;4.55;;
75189;SDS011;69198;44.694;37.790;2024-01-15T05:41:23;21.02;;;6.40;;
75189;SDS011;69198;44.694;37.790;2024-01-15T05:42:24;33.38;;;10.52;;
75189;SDS011;69198;44.694;37.790;2024-01-15T05:43:26;18.13;;;4.43;;
75189;SDS011;69198;44.694;37.790;2024-01-15T05:44:27;14.45;;;4.30;;
75189;SDS011;69198;44.694;37.790;2024-01-15T05:45:29;16.00;;;4.13;;
75189;SDS011;69198;44.694;37.790;2024-01-15T05:46:31;31.27;;;12.32;;
75189;SDS011;69198;44.694;37.790;2024-01-15T05:47:32;19.65;;;6.45;;
75189;SDS011;69198;44.694;37.790;2024-01-15T05:48:33;13.55;;;5.35;;
75189;SDS011;69198;44.694;37.790;2024-01-15T05:49:34;13.73;;;3.97;;
75189;SDS011;69198;44.694;37.790;2024-01-15T05:50:35;13.63;;;4.00;;
75189;SDS011;69198;44.694;37.790;2024-01-15T05:51:36;14.57;;;4.80;;
75189;SDS011;69198;44.694;37.790;2024-01-15T05:52:37;13.88;;;5.03;;
75189;SDS011;69198;44.694;37.790;2024-01-15T05:53:57;15.80;;;5.40;;
75189;SDS011;69198;44.694;37.790;2024-01-15T05:54:57;11.35;;;4.00;;
75189;SDS011;69198;44.694;37.790;2024-01-15T05:55:58;12.60;;;3.17;;
75189;SDS011;69198;44.694;37.790;2024-01-15T05:57:01;12.18;;;3.42;;
75189;SDS011;69198;44.694;37.790;2024-01-15T05:58:02;12.70;;;3.58;;
75189;SDS011;69198;44.694;37.790;2024-01-15T05:59:03;13.30;;;3.65;;
75189;SDS011;69198;44.694;37.790;2024-01-15T06:00:04;12.07;;;3.50;;
75189;SDS011;69198;44.694;37.790;2024-01-15T06:01:06;19.17;;;5.78;;
75189;SDS011;69198;44.694;37.790;2024-01-15T06:02:07;14.83;;;3.70;;
75189;SDS011;69198;44.694;37.790;2024-01-15T06:03:45;14.52;;;3.10;;
75189;SDS011;69198;44.694;37.790;2024-01-15T06:04:46;13.98;;;4.60;;
75189;SDS011;69198;44.694;37.790;2024-01-15T06:05:47;22.27;;;9.00;;
75189;SDS011;69198;44.694;37.790;2024-01-15T06:06:47;16.55;;;4.00;;
75189;SDS011;69198;44.694;37.790;2024-01-15T06:08:07;16.38;;;4.20;;
75189;SDS011;69198;44.694;37.790;2024-01-15T06:09:08;13.40;;;3.27;;
75189;SDS011;69198;44.694;37.790;2024-01-15T06:10:09;12.73;;;3.83;;
75189;SDS011;69198;44.694;37.790;2024-01-15T06:11:10;12.38;;;3.28;;
75189;SDS011;69198;44.694;37.790;2024-01-15T06:12:11;11.43;;;3.70;;
75189;SDS011;69198;44.694;37.790;2024-01-15T06:13:31;8.50;;;3.00;;
75189;SDS011;69198;44.694;37.790;2024-01-15T06:14:32;12.10;;;2.83;;
75189;SDS011;69198;44.694;37.790;2024-01-15T06:15:33;13.30;;;2.60;;
75189;SDS011;69198;44.694;37.790;2024-01-15T06:16:34;11.15;;;2.70;;
75189;SDS011;69198;44.694;37.790;2024-01-15T06:17:35;12.02;;;2.97;;
75189;SDS011;69198;44.694;37.790;2024-01-15T06:18:36;9.43;;;2.92;;
75189;SDS011;69198;44.694;37.790;2024-01-15T06:19:37;9.43;;;2.65;;
75189;SDS011;69198;44.694;37.790;2024-01-15T06:20:38;11.90;;;2.95;;
75189;SDS011;69198;44.694;37.790;2024-01-15T06:21:40;11.70;;;3.08;;
75189;SDS011;69198;44.694;37.790;2024-01-15T06:22:41;12.43;;;3.33;;